createdAt,value
2022-11-28T15:28:39.160Z,5.69
2022-11-28T15:30:56.096Z,5.69
2022-11-28T15:31:56.128Z,5.61
2022-11-28T15:32:56.028Z,5.65
2022-11-28T15:33:56.025Z,5.69
2022-11-28T15:34:56.063Z,5.73
2022-11-28T15:35:56.009Z,5.76
2022-11-28T15:36:55.991Z,5.67
2022-11-28T15:37:55.995Z,5.70
2022-11-28T15:38:55.958Z,5.72
2022-11-28T15:39:55.948Z,5.75
2022-11-28T15:40:55.941Z,5.72
2022-11-28T15:41:55.921Z,5.65
2022-11-28T15:42:55.939Z,5.67
2022-11-28T15:43:55.940Z,5.67
2022-11-28T15:44:55.901Z,5.69
2022-11-28T15:45:55.887Z,5.65
2022-11-28T15:46:55.906Z,5.67
2022-11-28T15:47:55.930Z,5.65
2022-11-28T15:48:56.543Z,5.61
2022-11-28T15:49:55.857Z,5.67
2022-11-28T15:50:55.830Z,5.67
2022-11-28T15:51:55.840Z,5.65
2022-11-28T15:52:55.817Z,5.58
2022-11-28T15:53:55.829Z,5.58
2022-11-28T15:54:55.795Z,5.58
2022-11-28T15:55:55.793Z,5.61
2022-11-28T15:56:55.792Z,5.58
2022-11-28T15:57:55.776Z,5.58
2022-11-28T15:58:55.747Z,5.58
2022-11-28T15:59:55.774Z,5.61
2022-11-28T16:00:55.779Z,5.65
2022-11-28T16:01:59.198Z,5.66
2022-11-28T16:02:55.708Z,5.67
2022-11-28T16:03:55.689Z,5.58
2022-11-28T16:04:55.698Z,5.57
2022-11-28T16:05:55.671Z,5.59
2022-11-28T16:06:55.656Z,5.54
2022-11-28T16:07:55.705Z,5.54
2022-11-28T16:08:55.679Z,5.57
2022-11-28T16:09:55.645Z,5.58
2022-11-28T16:10:55.612Z,5.52
2022-11-28T16:11:55.612Z,5.58
2022-11-28T16:12:55.600Z,5.55
2022-11-28T16:13:55.593Z,5.66
2022-11-28T16:14:55.597Z,5.51
2022-11-28T16:15:55.703Z,5.51
2022-11-28T16:16:55.548Z,5.57
2022-11-28T16:17:55.545Z,5.61
2022-11-28T16:18:55.538Z,5.52
2022-11-28T16:19:55.549Z,5.52
2022-11-28T16:20:55.527Z,5.57
2022-11-28T16:21:55.513Z,5.55
2022-11-28T16:22:55.499Z,5.51
2022-11-28T16:23:55.487Z,5.52
2022-11-28T16:24:55.516Z,5.43
2022-11-28T16:25:55.483Z,5.40
2022-11-28T16:26:55.464Z,5.54
2022-11-28T16:27:55.438Z,5.55
2022-11-28T16:28:55.421Z,5.52
2022-11-28T16:29:55.457Z,5.47
2022-11-28T16:30:55.405Z,5.50
2022-11-28T16:31:55.489Z,5.43
2022-11-28T16:32:55.405Z,5.41
2022-11-28T16:33:55.368Z,5.48
2022-11-28T16:34:55.369Z,5.41
2022-11-28T16:35:55.345Z,5.39
2022-11-28T16:36:55.352Z,5.50
2022-11-28T16:37:55.329Z,5.41
2022-11-28T16:38:55.339Z,5.47
2022-11-28T16:39:55.302Z,5.34
2022-11-28T16:40:55.299Z,5.39
2022-11-28T16:41:55.297Z,5.32
2022-11-28T16:42:55.275Z,5.29
2022-11-28T16:43:55.257Z,5.36
2022-11-28T16:44:55.277Z,5.27
2022-11-28T16:45:55.307Z,5.33
2022-11-28T16:46:55.248Z,5.27
2022-11-28T16:47:55.233Z,5.34
2022-11-28T16:48:55.214Z,5.24
2022-11-28T16:49:55.220Z,5.32
2022-11-28T16:50:55.210Z,5.34
2022-11-28T16:51:55.186Z,5.27
2022-11-28T16:52:55.176Z,5.30
2022-11-28T16:53:55.166Z,5.33
2022-11-28T16:54:55.153Z,5.25
2022-11-28T16:55:55.132Z,5.21
2022-11-28T16:56:55.145Z,5.25
2022-11-28T16:57:55.110Z,5.30
2022-11-28T16:58:55.128Z,5.24
2022-11-28T16:59:55.102Z,5.30
2022-11-28T17:00:55.124Z,5.22
2022-11-28T17:01:55.114Z,5.27
2022-11-28T17:02:55.110Z,5.29
2022-11-28T17:03:55.066Z,5.19
2022-11-28T17:04:55.048Z,5.18
2022-11-28T17:05:55.058Z,5.19
2022-11-28T17:06:55.014Z,5.12
2022-11-28T17:07:55.094Z,5.14
2022-11-28T17:08:55.032Z,5.19
2022-11-28T17:09:55.012Z,5.22
2022-11-28T17:10:54.979Z,5.22
2022-11-28T17:11:54.966Z,5.15
2022-11-28T17:12:54.969Z,5.15
2022-11-28T17:13:57.535Z,5.21
2022-11-28T17:14:54.968Z,5.11
2022-11-28T17:15:54.934Z,5.04
2022-11-28T17:16:54.915Z,5.19
2022-11-28T17:17:54.896Z,5.12
2022-11-28T17:18:54.882Z,5.06
2022-11-28T17:19:54.921Z,5.06
2022-11-28T17:20:54.889Z,5.07
2022-11-28T17:21:54.861Z,5.00
2022-11-28T17:22:54.841Z,4.98
2022-11-28T17:23:54.842Z,5.04
2022-11-28T17:24:54.869Z,5.03
2022-11-28T17:25:54.808Z,4.98
2022-11-28T17:26:54.809Z,4.96
2022-11-28T17:27:54.789Z,4.98
2022-11-28T17:28:54.817Z,4.98
2022-11-28T17:29:54.764Z,5.03
2022-11-28T17:30:54.760Z,4.94
2022-11-28T17:31:54.791Z,5.06
2022-11-28T17:32:54.739Z,5.03
2022-11-28T17:33:54.741Z,4.93
2022-11-28T17:34:54.727Z,5.00
2022-11-28T17:35:54.735Z,4.98
2022-11-28T17:36:54.700Z,4.94
2022-11-28T17:37:54.683Z,4.96
2022-11-28T17:38:54.666Z,4.98
2022-11-28T17:39:54.770Z,4.98
2022-11-28T17:40:54.659Z,5.04
2022-11-28T17:41:54.656Z,4.94
2022-11-28T17:42:54.633Z,4.98
2022-11-28T17:43:54.631Z,5.01
2022-11-28T17:44:54.610Z,4.97
2022-11-28T17:45:54.658Z,4.96
2022-11-28T17:46:54.592Z,5.03
2022-11-28T17:47:54.607Z,5.00
2022-11-28T17:48:54.565Z,4.97
2022-11-28T17:49:54.611Z,4.97
2022-11-28T17:50:54.549Z,4.96
2022-11-28T17:51:54.565Z,4.93
2022-11-28T17:52:54.525Z,4.93
2022-11-28T17:53:54.512Z,4.91
2022-11-28T17:54:54.510Z,4.97
2022-11-28T17:55:54.494Z,4.94
2022-11-28T17:56:54.479Z,4.96
2022-11-28T17:57:54.482Z,4.85
2022-11-28T17:58:54.456Z,4.83
2022-11-28T17:59:54.457Z,4.93
2022-11-28T18:00:59.934Z,4.91
2022-11-28T18:01:55.545Z,4.83
2022-11-28T18:02:54.407Z,4.86
2022-11-28T18:03:54.400Z,4.91
2022-11-28T18:04:54.387Z,4.86
2022-11-28T18:05:54.378Z,4.85
2022-11-28T18:06:54.393Z,4.83
2022-11-28T18:07:54.446Z,4.88
2022-11-28T18:08:54.346Z,4.82
2022-11-28T18:09:54.339Z,4.83
2022-11-28T18:10:54.323Z,4.78
2022-11-28T18:11:54.308Z,4.88
2022-11-28T18:12:54.343Z,4.82
2022-11-28T18:13:54.323Z,4.85
2022-11-28T18:14:54.285Z,4.86
2022-11-28T18:15:54.282Z,4.77
2022-11-28T18:16:54.307Z,4.89
2022-11-28T18:17:54.245Z,4.85
2022-11-28T18:18:54.257Z,4.79
2022-11-28T18:19:57.456Z,4.83
2022-11-28T18:20:54.222Z,4.72
2022-11-28T18:21:54.199Z,4.74
2022-11-28T18:22:54.201Z,4.83
2022-11-28T18:23:54.209Z,4.82
2022-11-28T18:24:54.207Z,4.82
2022-11-28T18:25:54.163Z,4.79
2022-11-28T18:26:54.150Z,4.72
2022-11-28T18:27:54.141Z,4.85
2022-11-28T18:28:54.144Z,4.78
2022-11-28T18:29:54.135Z,4.77
2022-11-28T18:30:54.104Z,4.77
2022-11-28T18:31:54.161Z,4.67
2022-11-28T18:32:54.087Z,4.77
2022-11-28T18:33:58.712Z,4.66
2022-11-28T18:34:55.090Z,4.64
2022-11-28T18:35:54.051Z,4.67
2022-11-28T18:36:54.034Z,4.64
2022-11-28T18:37:54.056Z,4.77
2022-11-28T18:38:54.044Z,4.61
2022-11-28T18:39:54.056Z,4.66
2022-11-28T18:40:54.005Z,4.69
2022-11-28T18:41:54.029Z,4.66
2022-11-28T18:42:53.970Z,4.64
2022-11-28T18:43:53.987Z,4.64
2022-11-28T18:44:53.967Z,4.61
2022-11-28T18:45:54.053Z,4.61
2022-11-28T18:46:53.932Z,4.60
2022-11-28T18:47:59.898Z,4.63
2022-11-28T18:48:54.919Z,4.57
2022-11-28T18:49:53.919Z,4.61
2022-11-28T18:50:53.893Z,4.60
2022-11-28T18:51:53.900Z,4.64
2022-11-28T18:52:53.877Z,4.59
2022-11-28T18:53:53.854Z,4.63
2022-11-28T18:54:53.852Z,4.61
2022-11-28T18:55:53.858Z,4.60
2022-11-28T18:56:53.837Z,4.63
2022-11-28T18:57:53.808Z,4.59
2022-11-28T18:58:53.808Z,4.63
2022-11-28T18:59:55.531Z,4.63
2022-11-28T19:00:53.844Z,4.51
2022-11-28T19:01:53.832Z,4.49
2022-11-28T19:02:53.774Z,4.53
2022-11-28T19:03:53.767Z,4.54
2022-11-28T19:04:53.765Z,4.56
2022-11-28T19:05:53.737Z,4.60
2022-11-28T19:06:53.725Z,4.49
2022-11-28T19:07:53.780Z,4.51
2022-11-28T19:08:53.706Z,4.53
2022-11-28T19:09:53.694Z,4.48
2022-11-28T19:10:53.672Z,4.54
2022-11-28T19:11:53.692Z,4.54
2022-11-28T19:12:53.671Z,4.51
2022-11-28T19:13:53.731Z,4.56
2022-11-28T19:14:58.735Z,4.48
2022-11-28T19:15:54.618Z,4.56
2022-11-28T19:16:53.726Z,4.53
2022-11-28T19:17:53.604Z,4.54
2022-11-28T19:18:53.626Z,4.45
2022-11-28T19:19:53.590Z,4.48
2022-11-28T19:20:53.571Z,4.46
2022-11-28T19:21:53.556Z,4.43
2022-11-28T19:22:53.551Z,4.41
2022-11-28T19:23:53.532Z,4.39
2022-11-28T19:24:53.530Z,4.41
2022-11-28T19:25:53.530Z,4.39
2022-11-28T19:26:53.504Z,4.41
2022-11-28T19:27:53.515Z,4.39
2022-11-28T19:28:53.478Z,4.42
2022-11-28T19:29:53.476Z,4.42
2022-11-28T19:30:53.469Z,4.36
2022-11-28T19:31:53.547Z,4.30
2022-11-28T19:32:53.437Z,4.28
2022-11-28T19:33:58.978Z,4.38
2022-11-28T19:34:54.437Z,4.28
2022-11-28T19:35:53.408Z,4.38
2022-11-28T19:36:53.393Z,4.38
2022-11-28T19:37:53.402Z,4.34
2022-11-28T19:38:53.422Z,4.38
2022-11-28T19:39:53.367Z,4.28
2022-11-28T19:40:53.366Z,4.31
2022-11-28T19:41:53.348Z,4.31
2022-11-28T19:42:53.328Z,4.27
2022-11-28T19:43:53.337Z,4.41
2022-11-28T19:44:53.330Z,4.39
2022-11-28T19:45:53.350Z,4.34
2022-11-28T19:46:53.297Z,4.30
2022-11-28T19:47:53.276Z,4.38
2022-11-28T19:48:53.266Z,4.30
2022-11-28T19:49:53.272Z,4.28
2022-11-28T19:50:53.254Z,4.39
2022-11-28T19:51:53.250Z,4.35
2022-11-28T19:52:53.233Z,4.31
2022-11-28T19:53:53.223Z,4.35
2022-11-28T19:54:53.294Z,4.38
2022-11-28T19:55:53.203Z,4.39
2022-11-28T19:56:53.188Z,4.31
2022-11-28T19:57:53.240Z,4.27
2022-11-28T19:58:53.172Z,4.36
2022-11-28T19:59:53.179Z,4.34
2022-11-28T20:00:53.197Z,4.38
2022-11-28T20:01:53.163Z,4.34
2022-11-28T20:03:00.987Z,4.41
2022-11-28T20:03:53.120Z,4.34
2022-11-28T20:04:53.107Z,4.41
2022-11-28T20:05:53.097Z,4.35
2022-11-28T20:06:53.083Z,4.45
2022-11-28T20:07:58.204Z,4.35
2022-11-28T20:08:54.073Z,4.36
2022-11-28T20:09:53.056Z,4.39
2022-11-28T20:10:53.041Z,4.42
2022-11-28T20:11:53.045Z,4.36
2022-11-28T20:12:53.048Z,4.31
2022-11-28T20:13:53.034Z,4.34
2022-11-28T20:14:53.022Z,4.38
2022-11-28T20:15:53.006Z,4.34
2022-11-28T20:16:53.001Z,4.41
2022-11-28T20:17:52.974Z,4.31
2022-11-28T20:18:52.972Z,4.39
2022-11-28T20:19:52.965Z,4.38
2022-11-28T20:20:52.956Z,4.31
2022-11-28T20:21:52.924Z,4.31
2022-11-28T20:22:52.910Z,4.34
2022-11-28T20:23:52.921Z,4.30
2022-11-28T20:24:52.923Z,4.30
2022-11-28T20:25:52.899Z,4.34
2022-11-28T20:26:52.891Z,4.31
2022-11-28T20:27:52.875Z,4.26
2022-11-28T20:28:52.862Z,4.28
2022-11-28T20:29:52.856Z,4.28
2022-11-28T20:30:52.851Z,4.28
2022-11-28T20:31:52.889Z,4.27
2022-11-28T20:32:52.815Z,4.20
2022-11-28T20:33:52.802Z,4.23
2022-11-28T20:34:52.786Z,4.21
2022-11-28T20:35:56.972Z,4.34
2022-11-28T20:36:53.797Z,4.18
2022-11-28T20:37:52.770Z,4.27
2022-11-28T20:38:52.764Z,4.21
2022-11-28T20:39:52.743Z,4.28
2022-11-28T20:40:52.732Z,4.20
2022-11-28T20:41:52.727Z,4.23
2022-11-28T20:42:52.709Z,4.20
2022-11-28T20:43:52.727Z,4.23
2022-11-28T20:44:52.699Z,4.27
2022-11-28T20:45:52.745Z,4.20
2022-11-28T20:46:52.665Z,4.26
2022-11-28T20:47:52.673Z,4.24
2022-11-28T20:48:52.656Z,4.24
2022-11-28T20:49:52.652Z,4.23
2022-11-28T20:50:52.615Z,4.21
2022-11-28T20:51:52.621Z,4.24
2022-11-28T20:52:52.624Z,4.20
2022-11-28T20:53:52.593Z,4.16
2022-11-28T20:54:52.597Z,4.21
2022-11-28T20:55:52.593Z,4.17
2022-11-28T20:57:19.746Z,4.26
2022-11-28T20:57:53.545Z,4.24
2022-11-28T20:58:52.538Z,4.21
2022-11-28T20:59:52.539Z,4.17
2022-11-28T21:00:52.652Z,4.23
2022-11-28T21:01:52.598Z,4.20
2022-11-28T21:02:52.503Z,4.28
2022-11-28T21:03:52.515Z,4.36
2022-11-28T21:04:52.481Z,4.26
2022-11-28T21:05:55.293Z,4.28
2022-11-28T21:06:53.454Z,4.21
2022-11-28T21:07:52.462Z,4.23
2022-11-28T21:08:52.476Z,4.38
2022-11-28T21:09:52.433Z,4.28
2022-11-28T21:10:52.416Z,4.23
2022-11-28T21:11:59.714Z,4.27
2022-11-28T21:12:53.414Z,4.26
2022-11-28T21:13:52.380Z,4.27
2022-11-28T21:14:52.377Z,4.28
2022-11-28T21:15:52.369Z,4.31
2022-11-28T21:16:52.418Z,4.27
2022-11-28T21:17:52.360Z,4.27
2022-11-28T21:18:52.342Z,4.34
2022-11-28T21:19:52.352Z,4.27
2022-11-28T21:20:52.321Z,4.27
2022-11-28T21:21:52.303Z,4.34
2022-11-28T21:22:52.298Z,4.24
2022-11-28T21:23:52.285Z,4.35
2022-11-28T21:24:52.292Z,4.31
2022-11-28T21:25:52.256Z,4.36
2022-11-28T21:26:54.550Z,4.28
2022-11-28T21:27:52.242Z,4.38
2022-11-28T21:28:52.220Z,4.34
2022-11-28T21:29:52.257Z,4.35
2022-11-28T21:30:52.207Z,4.28
2022-11-28T21:31:52.256Z,4.36
2022-11-28T21:32:52.209Z,4.28
2022-11-28T21:33:52.176Z,4.34
2022-11-28T21:34:52.165Z,4.28
2022-11-28T21:35:52.188Z,4.27
2022-11-28T21:36:52.152Z,4.35
2022-11-28T21:37:52.127Z,4.28
2022-11-28T21:38:52.127Z,4.31
2022-11-28T21:39:52.109Z,4.24
2022-11-28T21:40:52.122Z,4.31
2022-11-28T21:41:52.125Z,4.28
2022-11-28T21:43:00.645Z,4.28
2022-11-28T21:43:52.059Z,4.28
2022-11-28T21:44:52.056Z,4.31
2022-11-28T21:45:52.086Z,4.26
2022-11-28T21:46:52.059Z,4.28
2022-11-28T21:47:52.026Z,4.27
2022-11-28T21:48:52.016Z,4.34
2022-11-28T21:49:52.001Z,4.34
2022-11-28T21:50:52.016Z,4.36
2022-11-28T21:51:52.065Z,4.34
2022-11-28T21:52:51.985Z,4.30
2022-11-28T21:53:51.964Z,4.31
2022-11-28T21:54:51.982Z,4.39
2022-11-28T21:55:51.947Z,4.31
2022-11-28T21:56:51.950Z,4.30
2022-11-28T21:57:51.923Z,4.31
2022-11-28T21:58:51.913Z,4.38
2022-11-28T21:59:51.900Z,4.38
2022-11-28T22:00:53.942Z,4.34
2022-11-28T22:01:51.979Z,4.26
2022-11-28T22:02:51.915Z,4.28
2022-11-28T22:03:51.851Z,4.38
2022-11-28T22:04:51.859Z,4.28
2022-11-28T22:05:51.841Z,4.41
2022-11-28T22:06:51.820Z,4.31
2022-11-28T22:07:51.924Z,4.31
2022-11-28T22:08:51.807Z,4.31
2022-11-28T22:09:51.799Z,4.31
2022-11-28T22:10:51.786Z,4.34
2022-11-28T22:11:51.766Z,4.34
2022-11-28T22:12:51.767Z,4.35
2022-11-28T22:13:51.786Z,4.31
2022-11-28T22:14:51.745Z,4.30
2022-11-28T22:15:51.863Z,4.34
2022-11-28T22:16:51.732Z,4.30
2022-11-28T22:17:51.712Z,4.24
2022-11-28T22:18:51.695Z,4.28
2022-11-28T22:19:51.704Z,4.30
2022-11-28T22:20:53.152Z,4.28
2022-11-28T22:21:52.169Z,4.30
2022-11-28T22:22:51.666Z,4.34
2022-11-28T22:23:51.680Z,4.30
2022-11-28T22:24:51.655Z,4.28
2022-11-28T22:25:51.625Z,4.38
2022-11-28T22:26:51.666Z,4.35
2022-11-28T22:27:51.616Z,4.34
2022-11-28T22:28:53.740Z,4.26
2022-11-28T22:29:51.597Z,4.30
2022-11-28T22:30:51.584Z,4.30
2022-11-28T22:31:51.601Z,4.31
2022-11-28T22:32:51.554Z,4.31
2022-11-28T22:33:51.552Z,4.35
2022-11-28T22:34:51.553Z,4.30
2022-11-28T22:35:51.578Z,4.30
2022-11-28T22:36:51.520Z,4.21
2022-11-28T22:37:51.501Z,4.28
2022-11-28T22:38:51.497Z,4.27
2022-11-28T22:39:51.515Z,4.34
2022-11-28T22:40:51.486Z,4.30
2022-11-28T22:41:51.464Z,4.28
2022-11-28T22:42:51.455Z,4.35
2022-11-28T22:43:51.467Z,4.24
2022-11-28T22:44:51.450Z,4.24
2022-11-28T22:45:51.456Z,4.24
2022-11-28T22:46:51.419Z,4.26
2022-11-28T22:47:51.406Z,4.26
2022-11-28T22:48:51.393Z,4.30
2022-11-28T22:49:51.385Z,4.31
2022-11-28T22:50:51.407Z,4.24
2022-11-28T22:51:51.361Z,4.28
2022-11-28T22:52:51.341Z,4.26
2022-11-28T22:53:51.343Z,4.28
2022-11-28T22:54:51.318Z,4.28
2022-11-28T22:55:51.339Z,4.24
2022-11-28T22:56:51.332Z,4.26
2022-11-28T22:57:51.297Z,4.20
2022-11-28T22:58:51.303Z,4.27
2022-11-28T22:59:51.286Z,4.27
2022-11-28T23:00:51.256Z,4.31
2022-11-28T23:01:51.441Z,4.31
2022-11-28T23:02:51.401Z,4.23
2022-11-28T23:03:51.263Z,4.27
2022-11-28T23:04:51.225Z,4.23
2022-11-28T23:05:51.209Z,4.26
2022-11-28T23:06:51.218Z,4.20
2022-11-28T23:07:51.233Z,4.16
2022-11-28T23:08:51.190Z,4.16
2022-11-28T23:09:51.205Z,4.26
2022-11-28T23:10:51.159Z,4.20
2022-11-28T23:11:51.178Z,4.23
2022-11-28T23:12:51.173Z,4.20
2022-11-28T23:13:51.156Z,4.28
2022-11-28T23:14:51.125Z,4.20
2022-11-28T23:15:52.893Z,4.23
2022-11-28T23:16:51.161Z,4.28
2022-11-28T23:17:51.097Z,4.20
2022-11-28T23:18:51.077Z,4.24
2022-11-28T23:19:51.080Z,4.24
2022-11-28T23:20:51.053Z,4.16
2022-11-28T23:21:58.609Z,4.26
2022-11-28T23:22:51.029Z,4.26
2022-11-28T23:23:51.030Z,4.16
2022-11-28T23:24:51.027Z,4.23
2022-11-28T23:25:51.003Z,4.23
2022-11-28T23:26:50.997Z,4.30
2022-11-28T23:27:51.035Z,4.27
2022-11-28T23:28:50.991Z,4.24
2022-11-28T23:29:50.977Z,4.23
2022-11-28T23:30:50.972Z,4.18
2022-11-28T23:31:51.039Z,4.20
2022-11-28T23:32:50.930Z,4.21
2022-11-28T23:33:50.921Z,4.13
2022-11-28T23:34:50.918Z,4.17
2022-11-28T23:35:50.918Z,4.21
2022-11-28T23:36:50.904Z,4.21
2022-11-28T23:37:50.879Z,4.20
2022-11-28T23:38:50.869Z,4.17
2022-11-28T23:39:50.858Z,4.17
2022-11-28T23:40:50.848Z,4.23
2022-11-28T23:41:50.869Z,4.20
2022-11-28T23:42:50.837Z,4.08
2022-11-28T23:43:50.839Z,4.17
2022-11-28T23:44:50.809Z,4.16
2022-11-28T23:45:50.834Z,4.13
2022-11-28T23:46:50.789Z,4.17
2022-11-28T23:47:50.778Z,4.18
2022-11-28T23:48:50.794Z,4.17
2022-11-28T23:49:50.754Z,4.05
2022-11-28T23:50:50.753Z,4.09
2022-11-28T23:51:50.732Z,4.12
2022-11-28T23:52:50.734Z,4.08
2022-11-28T23:53:50.714Z,4.17
2022-11-28T23:54:50.721Z,4.10
2022-11-28T23:55:50.687Z,4.12
2022-11-28T23:56:50.696Z,4.10
2022-11-28T23:57:50.672Z,4.06
2022-11-28T23:58:50.677Z,4.13
2022-11-28T23:59:50.665Z,4.10
